Rejestracja

Wszystkie dane podawane są w czasie UTC za wyjątkiem miejsc gdzie jest jednoznacznie podane, że jest inaczej. Dane podawane w serwisie mają charakter informacyjny!!!
Informacje w sprawie dostępu do serwisu pod numerem tel. +48 261-828-559 lub +48 261-828-138
Informacja dla żołnierzy i pracowników wojska: Prosimy o niezwłoczną zmianę adresu e-mail w profilu użytkownika na pocztę w domenie @ron.mil.pl

Aktualna Pogoda
 
Pogoda w Polsce
17°C Szczecin 13°C Suwałki 18°C Warszawa 19°C Poznan
20°C Opole 17°C Kraków 16°C Rzeszów
Więcej miast w Polsce

Pogoda w Europie
19°C Berlin 17°C Paryz 17°C Bruksela 14°C Oslo
16°C Praga 18°C Zagrzeb
Więcej miast w Europie

Metary wojskowe test
METAR EPBC 231900Z 15003KT CAVOK 20/12 Q1007=
METAR EPCE 232000Z 09003KT 9999 BKN133 14/12 Q1005 RMK 135 088 5/5=
METAR EPDA 232000Z VRB01KT 9999 BKN055 BKN149 18/15 Q1004 RMK 181 084 7/5=
METAR EPDE 232000Z 15004KT 9999 NSC 18/13 Q1008 RMK 183 069 2/2=
METAR EPIR 232000Z 14004KT 9999 NSC 16/11 Q1005 RMK 161 070 0/0=
METAR EPKS 232000Z 14003KT 9999 BKN091 17/11 Q1005 RMK 167 071 5/5=
METAR EPLK 232000Z 14005KT 9999 BKN150 17/12 Q1007 RMK 167 076 6/6=
METAR EPLY 232000Z 17004KT 9999 NSC 17/12 Q1006 RMK 171 073 3/3=
METAR EPMB 232000Z 14002KT 9999 NSC 15/12 Q1005 RMK 149 082 0/0=
METAR COR EPMI 232000Z 22003KT 160V270 9999 -SHRA SCT060CB BKN080 19/14 Q1005 RMK 191 073 6/3=
METAR EPMM 232000Z 15004KT 120V180 9999 NSC 17/11 Q1008 RMK 167 071 0/0=
METAR EPOK 232000Z 18004KT CAVOK 19/13 Q1005 RMK 185 068 0/0=
METAR EPPR 232000Z 00000KT 9999 NSC 15/11 Q1005 RMK 145 081 0/0=
METAR EPPW 232000Z 15004KT 9999 NSC 18/13 Q1006 RMK 175 074 5/5=
METAR EPSN 232000Z 17006KT 9999 SCT050 18/15 Q1004 RMK 182 079 3/3=
METAR EPTM 232000Z 16002KT 9999 NSC 17/11 Q1007 RMK 172 068 5/5=


 

Prawa autorskie©2007 SSH SZ RP. Wszelkie prawa zastrzeżone.